Aviation Digital Data Service (ADDS)

Output produced by METARs form (1240 UTC 17 September 2019)
found at http://www.aviationweather.gov/metar/data/
 
METAR text: OEMA 171200Z 11008KT CAVOK 41/M01 Q1010 NOSIG
Conditions at: OEMA (MADINAH INTL ARP, SA) observed 1200 UTC 17 September 2019
Temperature: 41.0°C (106°F)
Dewpoint: -1.0°C (30°F) [RH =  7%]
Pressure (altimeter): 29.82 inches Hg (1010.0 mb)
Winds: from the ESE (110 degrees) at 9 MPH (8 knots; 4.1 m/s)
Visibility: 6 or more miles (10+ km)
Ceiling: ceiling and visibility are OK
Clouds: unknown
Weather: no significant weather observed at this time

METAR text: OEMA 171000Z 27005KT 9999 FEW045 SCT100 40/00 Q1011 NOSIG
Conditions at: OEMA (MADINAH INTL ARP, SA) observed 1000 UTC 17 September 2019
Temperature: 40.0°C (104°F)
Dewpoint: 0.0°C (32°F) [RH =  8%]
Pressure (altimeter): 29.85 inches Hg (1011.0 mb)
Winds: from the W (270 degrees) at 6 MPH (5 knots; 2.6 m/s)
Visibility: 6 or more miles (10+ km)
Ceiling: at least 12,000 feet AGL
Clouds: few clouds at 4500 feet AGL
scattered clouds at 10000 feet AGL
Weather: no significant weather observed at this time

METAR text: OEMA 170900Z 26005KT CAVOK 40/00 Q1013 NOSIG
Conditions at: OEMA (MADINAH INTL ARP, SA) observed 0900 UTC 17 September 2019
Temperature: 40.0°C (104°F)
Dewpoint: 0.0°C (32°F) [RH =  8%]
Pressure (altimeter): 29.91 inches Hg (1013.0 mb)
Winds: from the W (260 degrees) at 6 MPH (5 knots; 2.6 m/s)
Visibility: 6 or more miles (10+ km)
Ceiling: ceiling and visibility are OK
Clouds: unknown
Weather: no significant weather observed at this time

METAR text: OEMA 170700Z 00000KT CAVOK 36/M03 Q1014 NOSIG
Conditions at: OEMA (MADINAH INTL ARP, SA) observed 0700 UTC 17 September 2019
Temperature: 36.0°C (97°F)
Dewpoint: -3.0°C (27°F) [RH =  8%]
Pressure (altimeter): 29.94 inches Hg (1014.0 mb)
Winds: calm
Visibility: 6 or more miles (10+ km)
Ceiling: ceiling and visibility are OK
Clouds: unknown
Weather: no significant weather observed at this time

METAR text: OEMA 170600Z 00000KT CAVOK 34/M04 Q1014 NOSIG
Conditions at: OEMA (MADINAH INTL ARP, SA) observed 0600 UTC 17 September 2019
Temperature: 34.0°C (93°F)
Dewpoint: -4.0°C (25°F) [RH =  9%]
Pressure (altimeter): 29.94 inches Hg (1014.0 mb)
Winds: calm
Visibility: 6 or more miles (10+ km)
Ceiling: ceiling and visibility are OK
Clouds: unknown
Weather: no significant weather observed at this time

METAR text: OEMA 170500Z 00000KT CAVOK 32/M04 Q1013 NOSIG
Conditions at: OEMA (MADINAH INTL ARP, SA) observed 0500 UTC 17 September 2019
Temperature: 32.0°C (90°F)
Dewpoint: -4.0°C (25°F) [RH = 10%]
Pressure (altimeter): 29.91 inches Hg (1013.0 mb)
Winds: calm
Visibility: 6 or more miles (10+ km)
Ceiling: ceiling and visibility are OK
Clouds: unknown
Weather: no significant weather observed at this time

METAR text: OEMA 170400Z 00000KT CAVOK 30/M04 Q1013 NOSIG
Conditions at: OEMA (MADINAH INTL ARP, SA) observed 0400 UTC 17 September 2019
Temperature: 30.0°C (86°F)
Dewpoint: -4.0°C (25°F) [RH = 11%]
Pressure (altimeter): 29.91 inches Hg (1013.0 mb)
Winds: calm
Visibility: 6 or more miles (10+ km)
Ceiling: ceiling and visibility are OK
Clouds: unknown
Weather: no significant weather observed at this time

METAR text: OEMA 170300Z 00000KT CAVOK 30/M04 Q1012 NOSIG
Conditions at: OEMA (MADINAH INTL ARP, SA) observed 0300 UTC 17 September 2019
Temperature: 30.0°C (86°F)
Dewpoint: -4.0°C (25°F) [RH = 11%]
Pressure (altimeter): 29.88 inches Hg (1012.0 mb)
Winds: calm
Visibility: 6 or more miles (10+ km)
Ceiling: ceiling and visibility are OK
Clouds: unknown
Weather: no significant weather observed at this time

METAR text: OEMA 170200Z 09002KT CAVOK 32/M03 Q1012 NOSIG
Conditions at: OEMA (MADINAH INTL ARP, SA) observed 0200 UTC 17 September 2019
Temperature: 32.0°C (90°F)
Dewpoint: -3.0°C (27°F) [RH = 10%]
Pressure (altimeter): 29.88 inches Hg (1012.0 mb)
Winds: from the E (90 degrees) at 2 MPH (2 knots; 1.0 m/s)
Visibility: 6 or more miles (10+ km)
Ceiling: ceiling and visibility are OK
Clouds: unknown
Weather: no significant weather observed at this time

METAR text: OEMA 170100Z 03002KT CAVOK 32/01 Q1011 NOSIG
Conditions at: OEMA (MADINAH INTL ARP, SA) observed 0100 UTC 17 September 2019
Temperature: 32.0°C (90°F)
Dewpoint: 1.0°C (34°F) [RH = 14%]
Pressure (altimeter): 29.85 inches Hg (1011.0 mb)
Winds: from the NNE (30 degrees) at 2 MPH (2 knots; 1.0 m/s)
Visibility: 6 or more miles (10+ km)
Ceiling: ceiling and visibility are OK
Clouds: unknown
Weather: no significant weather observed at this time

METAR text: OEMA 170000Z 00000KT CAVOK 33/02 Q1011 NOSIG
Conditions at: OEMA (MADINAH INTL ARP, SA) observed 0000 UTC 17 September 2019
Temperature: 33.0°C (91°F)
Dewpoint: 2.0°C (36°F) [RH = 14%]
Pressure (altimeter): 29.85 inches Hg (1011.0 mb)
Winds: calm
Visibility: 6 or more miles (10+ km)
Ceiling: ceiling and visibility are OK
Clouds: unknown
Weather: no significant weather observed at this time

METAR text: OEMA 162300Z 33006KT CAVOK 34/04 Q1011 NOSIG
Conditions at: OEMA (MADINAH INTL ARP, SA) observed 2300 UTC 16 September 2019
Temperature: 34.0°C (93°F)
Dewpoint: 4.0°C (39°F) [RH = 15%]
Pressure (altimeter): 29.85 inches Hg (1011.0 mb)
Winds: from the NNW (330 degrees) at 7 MPH (6 knots; 3.1 m/s)
Visibility: 6 or more miles (10+ km)
Ceiling: ceiling and visibility are OK
Clouds: unknown
Weather: no significant weather observed at this time

METAR text: OEMA 162200Z 36005KT CAVOK 34/04 Q1012 NOSIG
Conditions at: OEMA (MADINAH INTL ARP, SA) observed 2200 UTC 16 September 2019
Temperature: 34.0°C (93°F)
Dewpoint: 4.0°C (39°F) [RH = 15%]
Pressure (altimeter): 29.88 inches Hg (1012.0 mb)
Winds: from the N (360 degrees) at 6 MPH (5 knots; 2.6 m/s)
Visibility: 6 or more miles (10+ km)
Ceiling: ceiling and visibility are OK
Clouds: unknown
Weather: no significant weather observed at this time

METAR text: OEMA 162100Z 02006KT CAVOK 36/01 Q1012 NOSIG
Conditions at: OEMA (MADINAH INTL ARP, SA) observed 2100 UTC 16 September 2019
Temperature: 36.0°C (97°F)
Dewpoint: 1.0°C (34°F) [RH = 11%]
Pressure (altimeter): 29.88 inches Hg (1012.0 mb)
Winds: from the NNE (20 degrees) at 7 MPH (6 knots; 3.1 m/s)
Visibility: 6 or more miles (10+ km)
Ceiling: ceiling and visibility are OK
Clouds: unknown
Weather: no significant weather observed at this time

METAR text: OEMA 162000Z 28002KT CAVOK 37/02 Q1011 NOSIG
Conditions at: OEMA (MADINAH INTL ARP, SA) observed 2000 UTC 16 September 2019
Temperature: 37.0°C (99°F)
Dewpoint: 2.0°C (36°F) [RH = 11%]
Pressure (altimeter): 29.85 inches Hg (1011.0 mb)
Winds: from the W (280 degrees) at 2 MPH (2 knots; 1.0 m/s)
Visibility: 6 or more miles (10+ km)
Ceiling: ceiling and visibility are OK
Clouds: unknown
Weather: no significant weather observed at this time

METAR text: OEMA 161900Z 13003KT CAVOK 37/M04 Q1011 NOSIG
Conditions at: OEMA (MADINAH INTL ARP, SA) observed 1900 UTC 16 September 2019
Temperature: 37.0°C (99°F)
Dewpoint: -4.0°C (25°F) [RH =  7%]
Pressure (altimeter): 29.85 inches Hg (1011.0 mb)
Winds: from the SE (130 degrees) at 3 MPH (3 knots; 1.5 m/s)
Visibility: 6 or more miles (10+ km)
Ceiling: ceiling and visibility are OK
Clouds: unknown
Weather: no significant weather observed at this time

METAR text: OEMA 161800Z 11004KT CAVOK 39/M02 Q1011 NOSIG
Conditions at: OEMA (MADINAH INTL ARP, SA) observed 1800 UTC 16 September 2019
Temperature: 39.0°C (102°F)
Dewpoint: -2.0°C (28°F) [RH =  8%]
Pressure (altimeter): 29.85 inches Hg (1011.0 mb)
Winds: from the ESE (110 degrees) at 5 MPH (4 knots; 2.1 m/s)
Visibility: 6 or more miles (10+ km)
Ceiling: ceiling and visibility are OK
Clouds: unknown
Weather: no significant weather observed at this time

METAR text: OEMA 161700Z 11002KT CAVOK 40/M02 Q1010 NOSIG
Conditions at: OEMA (MADINAH INTL ARP, SA) observed 1700 UTC 16 September 2019
Temperature: 40.0°C (104°F)
Dewpoint: -2.0°C (28°F) [RH =  7%]
Pressure (altimeter): 29.82 inches Hg (1010.0 mb)
Winds: from the ESE (110 degrees) at 2 MPH (2 knots; 1.0 m/s)
Visibility: 6 or more miles (10+ km)
Ceiling: ceiling and visibility are OK
Clouds: unknown
Weather: no significant weather observed at this time

METAR text: OEMA 161600Z 12004KT 9999 FEW035 41/M01 Q1010 NOSIG
Conditions at: OEMA (MADINAH INTL ARP, SA) observed 1600 UTC 16 September 2019
Temperature: 41.0°C (106°F)
Dewpoint: -1.0°C (30°F) [RH =  7%]
Pressure (altimeter): 29.82 inches Hg (1010.0 mb)
Winds: from the ESE (120 degrees) at 5 MPH (4 knots; 2.1 m/s)
Visibility: 6 or more miles (10+ km)
Ceiling: at least 12,000 feet AGL
Clouds: few clouds at 3500 feet AGL
Weather: no significant weather observed at this time

METAR text: OEMA 161500Z 14008KT 9999 SCT035 42/00 Q1010 NOSIG
Conditions at: OEMA (MADINAH INTL ARP, SA) observed 1500 UTC 16 September 2019
Temperature: 42.0°C (108°F)
Dewpoint: 0.0°C (32°F) [RH =  7%]
Pressure (altimeter): 29.82 inches Hg (1010.0 mb)
Winds: from the SE (140 degrees) at 9 MPH (8 knots; 4.1 m/s)
Visibility: 6 or more miles (10+ km)
Ceiling: at least 12,000 feet AGL
Clouds: scattered clouds at 3500 feet AGL
Weather: no significant weather observed at this time

METAR text: OEMA 161400Z 29004KT 9999 SCT035 42/00 Q1009 NOSIG
Conditions at: OEMA (MADINAH INTL ARP, SA) observed 1400 UTC 16 September 2019
Temperature: 42.0°C (108°F)
Dewpoint: 0.0°C (32°F) [RH =  7%]
Pressure (altimeter): 29.79 inches Hg (1009.0 mb)
Winds: from the WNW (290 degrees) at 5 MPH (4 knots; 2.1 m/s)
Visibility: 6 or more miles (10+ km)
Ceiling: at least 12,000 feet AGL
Clouds: scattered clouds at 3500 feet AGL
Weather: no significant weather observed at this time

METAR text: OEMA 161300Z 16004KT 9999 SCT045 42/01 Q1010 NOSIG
Conditions at: OEMA (MADINAH INTL ARP, SA) observed 1300 UTC 16 September 2019
Temperature: 42.0°C (108°F)
Dewpoint: 1.0°C (34°F) [RH =  8%]
Pressure (altimeter): 29.82 inches Hg (1010.0 mb)
Winds: from the SSE (160 degrees) at 5 MPH (4 knots; 2.1 m/s)
Visibility: 6 or more miles (10+ km)
Ceiling: at least 12,000 feet AGL
Clouds: scattered clouds at 4500 feet AGL
Weather: no significant weather observed at this time

METAR text: OEMA 161200Z 08008KT 9999 SCT045 42/02 Q1010 NOSIG
Conditions at: OEMA (MADINAH INTL ARP, SA) observed 1200 UTC 16 September 2019
Temperature: 42.0°C (108°F)
Dewpoint: 2.0°C (36°F) [RH =  9%]
Pressure (altimeter): 29.82 inches Hg (1010.0 mb)
Winds: from the E (80 degrees) at 9 MPH (8 knots; 4.1 m/s)
Visibility: 6 or more miles (10+ km)
Ceiling: at least 12,000 feet AGL
Clouds: scattered clouds at 4500 feet AGL
Weather: no significant weather observed at this time

METAR text: OEMA 161100Z 18005KT 9999 FEW040 43/02 Q1011 NOSIG
Conditions at: OEMA (MADINAH INTL ARP, SA) observed 1100 UTC 16 September 2019
Temperature: 43.0°C (109°F)
Dewpoint: 2.0°C (36°F) [RH =  8%]
Pressure (altimeter): 29.85 inches Hg (1011.0 mb)
Winds: from the S (180 degrees) at 6 MPH (5 knots; 2.6 m/s)
Visibility: 6 or more miles (10+ km)
Ceiling: at least 12,000 feet AGL
Clouds: few clouds at 4000 feet AGL
Weather: no significant weather observed at this time

METAR text: OEMA 161000Z 13005KT CAVOK 41/04 Q1012 NOSIG
Conditions at: OEMA (MADINAH INTL ARP, SA) observed 1000 UTC 16 September 2019
Temperature: 41.0°C (106°F)
Dewpoint: 4.0°C (39°F) [RH = 10%]
Pressure (altimeter): 29.88 inches Hg (1012.0 mb)
Winds: from the SE (130 degrees) at 6 MPH (5 knots; 2.6 m/s)
Visibility: 6 or more miles (10+ km)
Ceiling: ceiling and visibility are OK
Clouds: unknown
Weather: no significant weather observed at this time

METAR text: OEMA 160900Z 23005KT CAVOK 40/05 Q1013 NOSIG
Conditions at: OEMA (MADINAH INTL ARP, SA) observed 0900 UTC 16 September 2019
Temperature: 40.0°C (104°F)
Dewpoint: 5.0°C (41°F) [RH = 12%]
Pressure (altimeter): 29.91 inches Hg (1013.0 mb)
Winds: from the SW (230 degrees) at 6 MPH (5 knots; 2.6 m/s)
Visibility: 6 or more miles (10+ km)
Ceiling: ceiling and visibility are OK
Clouds: unknown
Weather: no significant weather observed at this time

METAR text: OEMA 160700Z 16004KT CAVOK 37/08 Q1014 NOSIG
Conditions at: OEMA (MADINAH INTL ARP, SA) observed 0700 UTC 16 September 2019
Temperature: 37.0°C (99°F)
Dewpoint: 8.0°C (46°F) [RH = 17%]
Pressure (altimeter): 29.94 inches Hg (1014.0 mb)
Winds: from the SSE (160 degrees) at 5 MPH (4 knots; 2.1 m/s)
Visibility: 6 or more miles (10+ km)
Ceiling: ceiling and visibility are OK
Clouds: unknown
Weather: no significant weather observed at this time

METAR text: OEMA 160600Z 22004KT CAVOK 34/08 Q1014 NOSIG
Conditions at: OEMA (MADINAH INTL ARP, SA) observed 0600 UTC 16 September 2019
Temperature: 34.0°C (93°F)
Dewpoint: 8.0°C (46°F) [RH = 20%]
Pressure (altimeter): 29.94 inches Hg (1014.0 mb)
Winds: from the SW (220 degrees) at 5 MPH (4 knots; 2.1 m/s)
Visibility: 6 or more miles (10+ km)
Ceiling: ceiling and visibility are OK
Clouds: unknown
Weather: no significant weather observed at this time

METAR text: OEMA 160500Z 21005KT CAVOK 33/07 Q1013 NOSIG
Conditions at: OEMA (MADINAH INTL ARP, SA) observed 0500 UTC 16 September 2019
Temperature: 33.0°C (91°F)
Dewpoint: 7.0°C (45°F) [RH = 20%]
Pressure (altimeter): 29.91 inches Hg (1013.0 mb)
Winds: from the SSW (210 degrees) at 6 MPH (5 knots; 2.6 m/s)
Visibility: 6 or more miles (10+ km)
Ceiling: ceiling and visibility are OK
Clouds: unknown
Weather: no significant weather observed at this time

METAR text: OEMA 160400Z 05003KT CAVOK 32/09 Q1012 NOSIG
Conditions at: OEMA (MADINAH INTL ARP, SA) observed 0400 UTC 16 September 2019
Temperature: 32.0°C (90°F)
Dewpoint: 9.0°C (48°F) [RH = 24%]
Pressure (altimeter): 29.88 inches Hg (1012.0 mb)
Winds: from the NE (50 degrees) at 3 MPH (3 knots; 1.5 m/s)
Visibility: 6 or more miles (10+ km)
Ceiling: ceiling and visibility are OK
Clouds: unknown
Weather: no significant weather observed at this time

METAR text: OEMA 160300Z 25009KT CAVOK 32/09 Q1012 NOSIG
Conditions at: OEMA (MADINAH INTL ARP, SA) observed 0300 UTC 16 September 2019
Temperature: 32.0°C (90°F)
Dewpoint: 9.0°C (48°F) [RH = 24%]
Pressure (altimeter): 29.88 inches Hg (1012.0 mb)
Winds: from the WSW (250 degrees) at 10 MPH (9 knots; 4.6 m/s)
Visibility: 6 or more miles (10+ km)
Ceiling: ceiling and visibility are OK
Clouds: unknown
Weather: no significant weather observed at this time

METAR text: OEMA 160200Z 26004KT CAVOK 33/09 Q1012 NOSIG
Conditions at: OEMA (MADINAH INTL ARP, SA) observed 0200 UTC 16 September 2019
Temperature: 33.0°C (91°F)
Dewpoint: 9.0°C (48°F) [RH = 23%]
Pressure (altimeter): 29.88 inches Hg (1012.0 mb)
Winds: from the W (260 degrees) at 5 MPH (4 knots; 2.1 m/s)
Visibility: 6 or more miles (10+ km)
Ceiling: ceiling and visibility are OK
Clouds: unknown
Weather: no significant weather observed at this time

METAR text: OEMA 160100Z 33018KT CAVOK 35/09 Q1012 NOSIG
Conditions at: OEMA (MADINAH INTL ARP, SA) observed 0100 UTC 16 September 2019
Temperature: 35.0°C (95°F)
Dewpoint: 9.0°C (48°F) [RH = 20%]
Pressure (altimeter): 29.88 inches Hg (1012.0 mb)
Winds: from the NNW (330 degrees) at 21 MPH (18 knots; 9.3 m/s)
Visibility: 6 or more miles (10+ km)
Ceiling: ceiling and visibility are OK
Clouds: unknown
Weather: no significant weather observed at this time

Forecast for: OEMA (MADINAH INTL ARP, SA)
Text: TAF OEMA 171100Z 1712/1818 14010KT 8000 FEW040
Forecast period: 1200 to 1800 UTC 17 September 2019
Forecast type: FROM: standard forecast or significant change
Winds: from the SE (140 degrees) at 12 MPH (10 knots; 5.1 m/s)
Visibility: 5 miles (8 km)
Ceiling: at least 12,000 feet AGL
Clouds: few clouds at 4000 feet AGL
Weather: no significant weather forecast for this period
Text: BECMG 1718/1720 VRB03KT
Forecast period: 1800 UTC 17 September 2019 to 1800 UTC 18 September 2019
Forecast type: BECOMING: Conditions expected to become as follows by 2000 UTC 17 September 2019
Winds: variable direction winds at 3 MPH (3 knots; 1.5 m/s)
Visibility: 5 miles (8 km)
Ceiling: at least 12,000 feet AGL
Clouds: few clouds at 4000 feet AGL
Weather: no significant weather forecast for this period